sensor_id;sensor_type;location;lat;lon;timestamp;P1;durP1;ratioP1;P2;durP2;ratioP2
3718;SDS011;1875;52.492;6.860;2023-05-09T00:00:53;24.13;;;21.53;;
3718;SDS011;1875;52.492;6.860;2023-05-09T00:03:21;22.30;;;20.00;;
3718;SDS011;1875;52.492;6.860;2023-05-09T00:05:49;24.10;;;20.43;;
3718;SDS011;1875;52.492;6.860;2023-05-09T00:08:17;23.83;;;19.07;;
3718;SDS011;1875;52.492;6.860;2023-05-09T00:10:46;22.40;;;19.33;;
3718;SDS011;1875;52.492;6.860;2023-05-09T00:13:14;24.63;;;19.03;;
3718;SDS011;1875;52.492;6.860;2023-05-09T00:15:42;21.43;;;18.77;;
3718;SDS011;1875;52.492;6.860;2023-05-09T00:18:11;23.23;;;19.40;;
3718;SDS011;1875;52.492;6.860;2023-05-09T00:20:40;20.13;;;17.73;;
3718;SDS011;1875;52.492;6.860;2023-05-09T00:23:09;24.93;;;19.40;;
3718;SDS011;1875;52.492;6.860;2023-05-09T00:25:37;20.03;;;16.63;;
3718;SDS011;1875;52.492;6.860;2023-05-09T00:28:06;19.90;;;17.80;;
3718;SDS011;1875;52.492;6.860;2023-05-09T00:30:34;20.40;;;17.60;;
3718;SDS011;1875;52.492;6.860;2023-05-09T00:33:01;22.97;;;17.57;;
3718;SDS011;1875;52.492;6.860;2023-05-09T00:35:29;21.87;;;17.50;;
3718;SDS011;1875;52.492;6.860;2023-05-09T00:37:57;19.87;;;17.03;;
3718;SDS011;1875;52.492;6.860;2023-05-09T00:40:25;21.27;;;17.43;;
3718;SDS011;1875;52.492;6.860;2023-05-09T00:42:53;19.43;;;17.43;;
3718;SDS011;1875;52.492;6.860;2023-05-09T00:45:24;20.47;;;17.23;;
3718;SDS011;1875;52.492;6.860;2023-05-09T00:47:52;21.77;;;17.07;;
3718;SDS011;1875;52.492;6.860;2023-05-09T00:50:20;20.30;;;18.00;;
3718;SDS011;1875;52.492;6.860;2023-05-09T00:52:48;19.30;;;17.13;;
3718;SDS011;1875;52.492;6.860;2023-05-09T00:55:16;21.13;;;17.57;;
3718;SDS011;1875;52.492;6.860;2023-05-09T00:57:44;18.87;;;16.03;;
3718;SDS011;1875;52.492;6.860;2023-05-09T01:00:13;22.63;;;17.67;;
3718;SDS011;1875;52.492;6.860;2023-05-09T01:02:43;20.20;;;17.47;;
3718;SDS011;1875;52.492;6.860;2023-05-09T01:05:13;20.73;;;16.13;;
3718;SDS011;1875;52.492;6.860;2023-05-09T01:07:42;19.83;;;17.13;;
3718;SDS011;1875;52.492;6.860;2023-05-09T01:10:15;20.20;;;17.23;;
3718;SDS011;1875;52.492;6.860;2023-05-09T01:12:51;23.53;;;16.67;;
3718;SDS011;1875;52.492;6.860;2023-05-09T01:15:23;19.47;;;16.47;;
3718;SDS011;1875;52.492;6.860;2023-05-09T01:17:56;19.97;;;16.40;;
3718;SDS011;1875;52.492;6.860;2023-05-09T01:20:28;18.97;;;16.37;;
3718;SDS011;1875;52.492;6.860;2023-05-09T01:23:09;21.40;;;17.17;;
3718;SDS011;1875;52.492;6.860;2023-05-09T01:25:48;20.03;;;16.70;;
3718;SDS011;1875;52.492;6.860;2023-05-09T01:28:34;22.20;;;16.87;;
3718;SDS011;1875;52.492;6.860;2023-05-09T01:31:21;24.57;;;17.77;;
3718;SDS011;1875;52.492;6.860;2023-05-09T01:33:51;23.07;;;18.47;;
3718;SDS011;1875;52.492;6.860;2023-05-09T01:36:21;19.73;;;17.43;;
3718;SDS011;1875;52.492;6.860;2023-05-09T01:38:49;19.93;;;17.50;;
3718;SDS011;1875;52.492;6.860;2023-05-09T01:41:18;22.13;;;18.73;;
3718;SDS011;1875;52.492;6.860;2023-05-09T01:43:49;21.07;;;18.37;;
3718;SDS011;1875;52.492;6.860;2023-05-09T01:46:17;24.53;;;19.17;;
3718;SDS011;1875;52.492;6.860;2023-05-09T01:48:47;22.93;;;18.23;;
3718;SDS011;1875;52.492;6.860;2023-05-09T01:51:16;20.17;;;18.03;;
3718;SDS011;1875;52.492;6.860;2023-05-09T01:53:45;23.57;;;20.10;;
3718;SDS011;1875;52.492;6.860;2023-05-09T01:56:14;21.47;;;19.17;;
3718;SDS011;1875;52.492;6.860;2023-05-09T01:58:43;25.17;;;20.63;;
3718;SDS011;1875;52.492;6.860;2023-05-09T02:01:13;26.03;;;20.87;;
3718;SDS011;1875;52.492;6.860;2023-05-09T02:03:41;24.73;;;21.03;;
3718;SDS011;1875;52.492;6.860;2023-05-09T02:06:12;26.30;;;20.90;;
3718;SDS011;1875;52.492;6.860;2023-05-09T02:08:40;26.77;;;20.97;;
3718;SDS011;1875;52.492;6.860;2023-05-09T02:11:08;24.50;;;21.63;;
3718;SDS011;1875;52.492;6.860;2023-05-09T02:13:36;24.63;;;21.50;;
3718;SDS011;1875;52.492;6.860;2023-05-09T02:16:04;34.60;;;22.37;;
3718;SDS011;1875;52.492;6.860;2023-05-09T02:18:33;32.77;;;22.20;;
3718;SDS011;1875;52.492;6.860;2023-05-09T02:21:01;25.10;;;21.37;;
3718;SDS011;1875;52.492;6.860;2023-05-09T02:23:30;27.53;;;21.37;;
3718;SDS011;1875;52.492;6.860;2023-05-09T02:25:58;29.53;;;21.33;;
3718;SDS011;1875;52.492;6.860;2023-05-09T02:28:26;26.90;;;21.37;;
3718;SDS011;1875;52.492;6.860;2023-05-09T02:30:54;25.63;;;21.43;;
3718;SDS011;1875;52.492;6.860;2023-05-09T02:33:23;26.87;;;21.57;;
3718;SDS011;1875;52.492;6.860;2023-05-09T02:35:51;24.20;;;20.23;;
3718;SDS011;1875;52.492;6.860;2023-05-09T02:38:20;23.77;;;21.10;;
3718;SDS011;1875;52.492;6.860;2023-05-09T02:40:49;28.60;;;22.30;;
3718;SDS011;1875;52.492;6.860;2023-05-09T02:43:17;26.37;;;22.47;;
3718;SDS011;1875;52.492;6.860;2023-05-09T02:45:45;25.50;;;22.57;;
3718;SDS011;1875;52.492;6.860;2023-05-09T02:48:13;27.50;;;22.73;;
3718;SDS011;1875;52.492;6.860;2023-05-09T02:50:41;27.00;;;22.43;;
3718;SDS011;1875;52.492;6.860;2023-05-09T02:53:09;25.93;;;21.93;;
3718;SDS011;1875;52.492;6.860;2023-05-09T02:55:37;29.23;;;22.17;;
3718;SDS011;1875;52.492;6.860;2023-05-09T02:58:06;27.97;;;23.37;;
3718;SDS011;1875;52.492;6.860;2023-05-09T03:00:40;26.93;;;22.97;;
3718;SDS011;1875;52.492;6.860;2023-05-09T03:03:08;27.93;;;23.07;;
3718;SDS011;1875;52.492;6.860;2023-05-09T03:05:36;28.23;;;23.80;;
3718;SDS011;1875;52.492;6.860;2023-05-09T03:08:04;27.63;;;23.50;;
3718;SDS011;1875;52.492;6.860;2023-05-09T03:10:32;27.83;;;22.10;;
3718;SDS011;1875;52.492;6.860;2023-05-09T03:13:00;29.33;;;24.47;;
3718;SDS011;1875;52.492;6.860;2023-05-09T03:15:29;28.73;;;23.87;;
3718;SDS011;1875;52.492;6.860;2023-05-09T03:17:57;28.73;;;23.93;;
3718;SDS011;1875;52.492;6.860;2023-05-09T03:20:25;30.10;;;23.87;;
3718;SDS011;1875;52.492;6.860;2023-05-09T03:22:52;28.67;;;24.20;;
3718;SDS011;1875;52.492;6.860;2023-05-09T03:25:20;33.40;;;26.07;;
3718;SDS011;1875;52.492;6.860;2023-05-09T03:27:48;28.83;;;25.10;;
3718;SDS011;1875;52.492;6.860;2023-05-09T03:30:16;35.07;;;26.00;;
3718;SDS011;1875;52.492;6.860;2023-05-09T03:32:45;32.90;;;25.07;;
3718;SDS011;1875;52.492;6.860;2023-05-09T03:35:13;29.30;;;24.77;;
3718;SDS011;1875;52.492;6.860;2023-05-09T03:37:41;29.70;;;25.00;;
3718;SDS011;1875;52.492;6.860;2023-05-09T03:40:09;29.90;;;24.90;;
3718;SDS011;1875;52.492;6.860;2023-05-09T03:42:37;27.97;;;23.77;;
3718;SDS011;1875;52.492;6.860;2023-05-09T03:45:05;31.73;;;25.73;;
3718;SDS011;1875;52.492;6.860;2023-05-09T03:47:34;30.97;;;24.47;;
3718;SDS011;1875;52.492;6.860;2023-05-09T03:50:03;30.13;;;24.60;;
3718;SDS011;1875;52.492;6.860;2023-05-09T03:52:32;31.93;;;26.17;;
3718;SDS011;1875;52.492;6.860;2023-05-09T03:54:59;32.70;;;26.23;;
3718;SDS011;1875;52.492;6.860;2023-05-09T03:57:27;29.00;;;25.27;;
3718;SDS011;1875;52.492;6.860;2023-05-09T03:59:55;30.23;;;25.70;;
3718;SDS011;1875;52.492;6.860;2023-05-09T04:02:23;32.57;;;25.40;;
3718;SDS011;1875;52.492;6.860;2023-05-09T04:04:51;30.17;;;24.43;;
3718;SDS011;1875;52.492;6.860;2023-05-09T04:07:20;30.37;;;25.53;;
3718;SDS011;1875;52.492;6.860;2023-05-09T04:09:48;32.23;;;26.27;;
3718;SDS011;1875;52.492;6.860;2023-05-09T04:12:15;29.60;;;25.77;;
3718;SDS011;1875;52.492;6.860;2023-05-09T04:14:43;32.13;;;26.20;;
3718;SDS011;1875;52.492;6.860;2023-05-09T04:17:14;32.17;;;24.07;;
3718;SDS011;1875;52.492;6.860;2023-05-09T04:19:42;31.67;;;25.53;;
3718;SDS011;1875;52.492;6.860;2023-05-09T04:22:09;30.83;;;26.30;;
3718;SDS011;1875;52.492;6.860;2023-05-09T04:24:39;34.03;;;26.43;;
3718;SDS011;1875;52.492;6.860;2023-05-09T04:27:07;34.63;;;27.43;;
3718;SDS011;1875;52.492;6.860;2023-05-09T04:29:34;31.23;;;26.03;;
3718;SDS011;1875;52.492;6.860;2023-05-09T04:32:03;35.30;;;27.10;;
3718;SDS011;1875;52.492;6.860;2023-05-09T04:34:31;29.07;;;25.93;;
3718;SDS011;1875;52.492;6.860;2023-05-09T04:36:59;31.17;;;25.80;;
3718;SDS011;1875;52.492;6.860;2023-05-09T04:39:27;31.67;;;25.97;;
3718;SDS011;1875;52.492;6.860;2023-05-09T04:41:56;31.83;;;25.43;;
3718;SDS011;1875;52.492;6.860;2023-05-09T04:44:25;33.63;;;27.30;;
3718;SDS011;1875;52.492;6.860;2023-05-09T04:46:52;33.30;;;25.40;;
3718;SDS011;1875;52.492;6.860;2023-05-09T04:49:21;32.00;;;26.27;;
3718;SDS011;1875;52.492;6.860;2023-05-09T04:51:49;31.23;;;26.53;;
3718;SDS011;1875;52.492;6.860;2023-05-09T04:54:17;35.83;;;26.93;;
3718;SDS011;1875;52.492;6.860;2023-05-09T04:56:45;33.47;;;26.03;;
3718;SDS011;1875;52.492;6.860;2023-05-09T04:59:17;30.23;;;26.27;;
3718;SDS011;1875;52.492;6.860;2023-05-09T05:01:44;32.47;;;25.83;;
3718;SDS011;1875;52.492;6.860;2023-05-09T05:04:12;33.67;;;27.20;;
3718;SDS011;1875;52.492;6.860;2023-05-09T05:06:40;30.20;;;25.80;;
3718;SDS011;1875;52.492;6.860;2023-05-09T05:09:08;35.83;;;27.17;;
3718;SDS011;1875;52.492;6.860;2023-05-09T05:11:36;33.10;;;26.30;;
3718;SDS011;1875;52.492;6.860;2023-05-09T05:14:05;28.87;;;24.97;;
3718;SDS011;1875;52.492;6.860;2023-05-09T05:16:34;29.67;;;25.73;;
3718;SDS011;1875;52.492;6.860;2023-05-09T05:19:02;29.60;;;25.70;;
3718;SDS011;1875;52.492;6.860;2023-05-09T05:21:30;33.17;;;25.20;;
3718;SDS011;1875;52.492;6.860;2023-05-09T05:23:58;29.13;;;24.27;;
3718;SDS011;1875;52.492;6.860;2023-05-09T05:26:25;30.87;;;26.20;;
3718;SDS011;1875;52.492;6.860;2023-05-09T05:28:54;31.30;;;25.03;;
3718;SDS011;1875;52.492;6.860;2023-05-09T05:31:22;32.57;;;26.50;;
3718;SDS011;1875;52.492;6.860;2023-05-09T05:33:51;32.03;;;26.47;;
3718;SDS011;1875;52.492;6.860;2023-05-09T05:36:19;33.77;;;27.57;;
3718;SDS011;1875;52.492;6.860;2023-05-09T05:38:46;34.17;;;26.13;;
3718;SDS011;1875;52.492;6.860;2023-05-09T05:41:14;31.93;;;25.90;;
3718;SDS011;1875;52.492;6.860;2023-05-09T05:43:42;31.87;;;26.40;;
3718;SDS011;1875;52.492;6.860;2023-05-09T05:46:10;31.87;;;26.70;;
3718;SDS011;1875;52.492;6.860;2023-05-09T05:48:37;32.23;;;26.77;;
3718;SDS011;1875;52.492;6.860;2023-05-09T05:51:06;36.60;;;26.93;;
3718;SDS011;1875;52.492;6.860;2023-05-09T05:53:34;33.63;;;27.47;;
3718;SDS011;1875;52.492;6.860;2023-05-09T05:56:02;31.80;;;27.27;;
3718;SDS011;1875;52.492;6.860;2023-05-09T05:58:30;31.17;;;26.07;;
3718;SDS011;1875;52.492;6.860;2023-05-09T06:00:58;32.17;;;27.73;;
3718;SDS011;1875;52.492;6.860;2023-05-09T06:03:26;35.77;;;28.77;;
3718;SDS011;1875;52.492;6.860;2023-05-09T06:05:53;32.30;;;27.03;;
3718;SDS011;1875;52.492;6.860;2023-05-09T06:08:23;32.67;;;27.60;;
3718;SDS011;1875;52.492;6.860;2023-05-09T06:10:51;33.80;;;26.20;;
3718;SDS011;1875;52.492;6.860;2023-05-09T06:13:18;33.03;;;25.97;;
3718;SDS011;1875;52.492;6.860;2023-05-09T06:15:46;33.90;;;27.17;;
3718;SDS011;1875;52.492;6.860;2023-05-09T06:18:14;30.97;;;26.57;;
3718;SDS011;1875;52.492;6.860;2023-05-09T06:20:42;30.83;;;26.47;;
3718;SDS011;1875;52.492;6.860;2023-05-09T06:23:09;33.57;;;27.53;;
3718;SDS011;1875;52.492;6.860;2023-05-09T06:25:38;37.70;;;27.73;;
3718;SDS011;1875;52.492;6.860;2023-05-09T06:28:06;29.47;;;26.23;;
3718;SDS011;1875;52.492;6.860;2023-05-09T06:30:34;32.80;;;27.10;;
3718;SDS011;1875;52.492;6.860;2023-05-09T06:33:02;32.17;;;26.53;;
3718;SDS011;1875;52.492;6.860;2023-05-09T06:35:29;32.67;;;26.80;;
3718;SDS011;1875;52.492;6.860;2023-05-09T06:37:57;31.50;;;26.17;;
3718;SDS011;1875;52.492;6.860;2023-05-09T06:40:25;30.47;;;26.53;;
3718;SDS011;1875;52.492;6.860;2023-05-09T06:42:54;34.40;;;26.50;;
3718;SDS011;1875;52.492;6.860;2023-05-09T06:45:22;33.33;;;25.40;;
3718;SDS011;1875;52.492;6.860;2023-05-09T06:47:50;34.03;;;25.73;;
3718;SDS011;1875;52.492;6.860;2023-05-09T06:50:17;30.57;;;26.30;;
3718;SDS011;1875;52.492;6.860;2023-05-09T06:52:45;27.87;;;24.87;;
3718;SDS011;1875;52.492;6.860;2023-05-09T06:55:13;32.33;;;26.90;;
3718;SDS011;1875;52.492;6.860;2023-05-09T06:57:41;33.03;;;25.60;;
3718;SDS011;1875;52.492;6.860;2023-05-09T07:00:11;33.53;;;26.37;;
3718;SDS011;1875;52.492;6.860;2023-05-09T07:02:40;29.67;;;25.87;;
3718;SDS011;1875;52.492;6.860;2023-05-09T07:05:08;29.13;;;24.93;;
3718;SDS011;1875;52.492;6.860;2023-05-09T07:07:36;33.43;;;27.20;;
3718;SDS011;1875;52.492;6.860;2023-05-09T07:10:05;31.37;;;26.83;;
3718;SDS011;1875;52.492;6.860;2023-05-09T07:12:37;37.60;;;27.13;;
3718;SDS011;1875;52.492;6.860;2023-05-09T07:15:06;34.67;;;27.53;;
3718;SDS011;1875;52.492;6.860;2023-05-09T07:17:36;41.30;;;27.97;;
3718;SDS011;1875;52.492;6.860;2023-05-09T07:20:04;33.67;;;26.87;;
3718;SDS011;1875;52.492;6.860;2023-05-09T07:22:33;36.70;;;28.60;;
3718;SDS011;1875;52.492;6.860;2023-05-09T07:25:03;38.87;;;29.77;;
3718;SDS011;1875;52.492;6.860;2023-05-09T07:27:33;38.20;;;29.57;;
3718;SDS011;1875;52.492;6.860;2023-05-09T07:30:00;36.17;;;28.40;;
3718;SDS011;1875;52.492;6.860;2023-05-09T07:32:28;36.00;;;29.57;;
3718;SDS011;1875;52.492;6.860;2023-05-09T07:34:57;43.60;;;30.90;;
3718;SDS011;1875;52.492;6.860;2023-05-09T07:37:25;37.17;;;28.40;;
3718;SDS011;1875;52.492;6.860;2023-05-09T07:39:53;37.90;;;28.83;;
3718;SDS011;1875;52.492;6.860;2023-05-09T07:42:21;40.07;;;28.57;;
3718;SDS011;1875;52.492;6.860;2023-05-09T07:44:48;39.93;;;28.23;;
3718;SDS011;1875;52.492;6.860;2023-05-09T07:47:16;37.13;;;29.30;;
3718;SDS011;1875;52.492;6.860;2023-05-09T07:49:44;44.87;;;28.23;;
3718;SDS011;1875;52.492;6.860;2023-05-09T07:52:14;42.73;;;29.17;;
3718;SDS011;1875;52.492;6.860;2023-05-09T07:54:43;43.93;;;30.17;;
3718;SDS011;1875;52.492;6.860;2023-05-09T07:57:11;42.40;;;30.27;;
3718;SDS011;1875;52.492;6.860;2023-05-09T07:59:38;43.53;;;29.57;;
3718;SDS011;1875;52.492;6.860;2023-05-09T08:02:07;41.40;;;30.27;;
3718;SDS011;1875;52.492;6.860;2023-05-09T08:04:36;42.43;;;30.43;;
3718;SDS011;1875;52.492;6.860;2023-05-09T08:07:06;45.37;;;30.87;;
3718;SDS011;1875;52.492;6.860;2023-05-09T08:09:36;48.37;;;32.13;;
3718;SDS011;1875;52.492;6.860;2023-05-09T08:12:04;47.87;;;31.70;;
3718;SDS011;1875;52.492;6.860;2023-05-09T08:14:32;39.97;;;28.47;;
3718;SDS011;1875;52.492;6.860;2023-05-09T08:16:59;41.60;;;29.93;;
3718;SDS011;1875;52.492;6.860;2023-05-09T08:19:27;40.73;;;29.57;;
3718;SDS011;1875;52.492;6.860;2023-05-09T08:21:55;43.77;;;29.23;;
3718;SDS011;1875;52.492;6.860;2023-05-09T08:24:23;49.73;;;30.73;;
3718;SDS011;1875;52.492;6.860;2023-05-09T08:26:52;42.87;;;30.53;;
3718;SDS011;1875;52.492;6.860;2023-05-09T08:29:20;48.23;;;31.93;;
3718;SDS011;1875;52.492;6.860;2023-05-09T08:31:47;44.43;;;32.30;;
3718;SDS011;1875;52.492;6.860;2023-05-09T08:34:16;45.13;;;30.67;;
3718;SDS011;1875;52.492;6.860;2023-05-09T08:36:44;43.70;;;30.50;;
3718;SDS011;1875;52.492;6.860;2023-05-09T08:39:12;40.83;;;29.83;;
3718;SDS011;1875;52.492;6.860;2023-05-09T08:41:40;47.47;;;31.27;;
3718;SDS011;1875;52.492;6.860;2023-05-09T08:44:09;44.03;;;30.63;;
3718;SDS011;1875;52.492;6.860;2023-05-09T08:46:38;37.70;;;29.23;;
3718;SDS011;1875;52.492;6.860;2023-05-09T08:49:09;42.83;;;29.37;;
3718;SDS011;1875;52.492;6.860;2023-05-09T08:51:37;40.23;;;29.33;;
3718;SDS011;1875;52.492;6.860;2023-05-09T08:54:05;33.07;;;26.33;;
3718;SDS011;1875;52.492;6.860;2023-05-09T08:56:33;38.20;;;27.80;;
3718;SDS011;1875;52.492;6.860;2023-05-09T08:59:02;33.93;;;26.40;;
3718;SDS011;1875;52.492;6.860;2023-05-09T09:01:33;32.43;;;25.70;;
3718;SDS011;1875;52.492;6.860;2023-05-09T09:04:01;37.03;;;26.87;;
3718;SDS011;1875;52.492;6.860;2023-05-09T09:06:32;37.60;;;27.67;;
3718;SDS011;1875;52.492;6.860;2023-05-09T09:09:00;38.50;;;28.07;;
3718;SDS011;1875;52.492;6.860;2023-05-09T09:11:31;40.40;;;28.00;;
3718;SDS011;1875;52.492;6.860;2023-05-09T09:14:00;38.17;;;28.00;;
3718;SDS011;1875;52.492;6.860;2023-05-09T09:16:28;38.67;;;28.57;;
3718;SDS011;1875;52.492;6.860;2023-05-09T09:18:58;37.10;;;27.90;;
3718;SDS011;1875;52.492;6.860;2023-05-09T09:21:26;35.30;;;26.67;;
3718;SDS011;1875;52.492;6.860;2023-05-09T09:23:54;36.90;;;27.30;;
3718;SDS011;1875;52.492;6.860;2023-05-09T09:26:22;38.47;;;28.60;;
3718;SDS011;1875;52.492;6.860;2023-05-09T09:28:50;34.73;;;27.87;;
3718;SDS011;1875;52.492;6.860;2023-05-09T09:31:19;36.80;;;27.87;;
3718;SDS011;1875;52.492;6.860;2023-05-09T09:33:49;40.40;;;28.70;;
3718;SDS011;1875;52.492;6.860;2023-05-09T09:36:26;38.43;;;28.53;;
3718;SDS011;1875;52.492;6.860;2023-05-09T09:38:57;43.23;;;28.97;;
3718;SDS011;1875;52.492;6.860;2023-05-09T09:41:30;40.30;;;28.63;;
3718;SDS011;1875;52.492;6.860;2023-05-09T09:44:01;39.93;;;29.97;;
3718;SDS011;1875;52.492;6.860;2023-05-09T09:49:19;42.67;;;30.57;;
3718;SDS011;1875;52.492;6.860;2023-05-09T09:51:52;46.27;;;31.40;;
3718;SDS011;1875;52.492;6.860;2023-05-09T09:54:21;42.07;;;31.97;;
3718;SDS011;1875;52.492;6.860;2023-05-09T09:56:49;41.50;;;30.37;;
3718;SDS011;1875;52.492;6.860;2023-05-09T09:59:19;43.10;;;32.33;;
3718;SDS011;1875;52.492;6.860;2023-05-09T10:01:53;50.00;;;33.43;;
3718;SDS011;1875;52.492;6.860;2023-05-09T10:04:21;43.70;;;30.73;;
3718;SDS011;1875;52.492;6.860;2023-05-09T10:06:54;46.43;;;33.20;;
3718;SDS011;1875;52.492;6.860;2023-05-09T10:09:24;47.20;;;34.90;;
3718;SDS011;1875;52.492;6.860;2023-05-09T10:11:53;49.93;;;34.40;;
3718;SDS011;1875;52.492;6.860;2023-05-09T10:14:22;54.93;;;36.20;;
3718;SDS011;1875;52.492;6.860;2023-05-09T10:16:51;57.47;;;38.77;;
3718;SDS011;1875;52.492;6.860;2023-05-09T10:19:22;57.43;;;38.77;;
3718;SDS011;1875;52.492;6.860;2023-05-09T10:21:52;62.27;;;41.53;;
3718;SDS011;1875;52.492;6.860;2023-05-09T10:24:26;62.07;;;42.67;;
3718;SDS011;1875;52.492;6.860;2023-05-09T10:26:56;64.73;;;45.37;;
3718;SDS011;1875;52.492;6.860;2023-05-09T10:29:26;66.77;;;44.23;;
3718;SDS011;1875;52.492;6.860;2023-05-09T10:31:57;69.10;;;46.87;;
3718;SDS011;1875;52.492;6.860;2023-05-09T10:34:28;68.13;;;44.97;;
3718;SDS011;1875;52.492;6.860;2023-05-09T10:36:59;67.73;;;45.77;;
3718;SDS011;1875;52.492;6.860;2023-05-09T10:39:27;71.07;;;46.67;;
3718;SDS011;1875;52.492;6.860;2023-05-09T10:41:56;77.60;;;50.37;;
3718;SDS011;1875;52.492;6.860;2023-05-09T10:44:25;73.70;;;51.80;;
3718;SDS011;1875;52.492;6.860;2023-05-09T10:46:52;83.10;;;51.80;;
3718;SDS011;1875;52.492;6.860;2023-05-09T10:49:21;78.67;;;54.10;;
3718;SDS011;1875;52.492;6.860;2023-05-09T10:51:49;86.30;;;56.80;;
3718;SDS011;1875;52.492;6.860;2023-05-09T10:54:28;84.10;;;56.27;;
3718;SDS011;1875;52.492;6.860;2023-05-09T10:56:58;78.73;;;55.33;;
3718;SDS011;1875;52.492;6.860;2023-05-09T10:59:33;86.03;;;56.53;;
3718;SDS011;1875;52.492;6.860;2023-05-09T11:02:02;79.90;;;54.90;;
3718;SDS011;1875;52.492;6.860;2023-05-09T11:04:31;85.23;;;56.53;;
3718;SDS011;1875;52.492;6.860;2023-05-09T11:06:59;82.43;;;55.47;;
3718;SDS011;1875;52.492;6.860;2023-05-09T11:09:29;89.77;;;55.63;;
3718;SDS011;1875;52.492;6.860;2023-05-09T11:12:08;85.07;;;54.60;;
3718;SDS011;1875;52.492;6.860;2023-05-09T11:14:41;78.27;;;52.70;;
3718;SDS011;1875;52.492;6.860;2023-05-09T11:17:11;78.20;;;55.67;;
3718;SDS011;1875;52.492;6.860;2023-05-09T11:22:26;75.00;;;52.77;;
3718;SDS011;1875;52.492;6.860;2023-05-09T11:25:00;76.47;;;52.67;;
3718;SDS011;1875;52.492;6.860;2023-05-09T11:27:36;77.40;;;52.90;;
3718;SDS011;1875;52.492;6.860;2023-05-09T11:30:05;86.17;;;52.80;;
3718;SDS011;1875;52.492;6.860;2023-05-09T11:32:39;77.60;;;51.73;;
3718;SDS011;1875;52.492;6.860;2023-05-09T11:35:09;77.10;;;53.53;;
3718;SDS011;1875;52.492;6.860;2023-05-09T11:37:43;81.73;;;53.70;;
3718;SDS011;1875;52.492;6.860;2023-05-09T11:40:14;79.53;;;54.23;;
3718;SDS011;1875;52.492;6.860;2023-05-09T11:42:44;86.57;;;55.00;;
3718;SDS011;1875;52.492;6.860;2023-05-09T11:45:13;74.67;;;53.70;;
3718;SDS011;1875;52.492;6.860;2023-05-09T11:47:41;69.20;;;50.83;;
3718;SDS011;1875;52.492;6.860;2023-05-09T11:50:10;72.10;;;51.00;;
3718;SDS011;1875;52.492;6.860;2023-05-09T11:52:39;65.87;;;50.53;;
3718;SDS011;1875;52.492;6.860;2023-05-09T11:55:07;68.87;;;49.33;;
3718;SDS011;1875;52.492;6.860;2023-05-09T11:57:41;69.07;;;50.00;;
3718;SDS011;1875;52.492;6.860;2023-05-09T12:00:09;67.07;;;46.87;;
3718;SDS011;1875;52.492;6.860;2023-05-09T12:02:38;68.20;;;50.27;;
3718;SDS011;1875;52.492;6.860;2023-05-09T12:05:06;67.83;;;48.23;;
3718;SDS011;1875;52.492;6.860;2023-05-09T12:07:35;68.30;;;49.77;;
3718;SDS011;1875;52.492;6.860;2023-05-09T12:10:05;70.73;;;49.57;;
3718;SDS011;1875;52.492;6.860;2023-05-09T12:12:33;70.87;;;49.40;;
3718;SDS011;1875;52.492;6.860;2023-05-09T12:15:05;67.73;;;48.20;;
3718;SDS011;1875;52.492;6.860;2023-05-09T12:17:34;68.23;;;47.57;;
3718;SDS011;1875;52.492;6.860;2023-05-09T12:20:02;75.73;;;48.23;;
3718;SDS011;1875;52.492;6.860;2023-05-09T12:22:31;68.73;;;48.33;;
3718;SDS011;1875;52.492;6.860;2023-05-09T12:24:59;69.93;;;49.37;;
3718;SDS011;1875;52.492;6.860;2023-05-09T12:27:29;67.47;;;49.20;;
3718;SDS011;1875;52.492;6.860;2023-05-09T12:29:58;69.23;;;49.03;;
3718;SDS011;1875;52.492;6.860;2023-05-09T12:32:28;72.10;;;48.47;;
3718;SDS011;1875;52.492;6.860;2023-05-09T12:34:58;68.87;;;47.57;;
3718;SDS011;1875;52.492;6.860;2023-05-09T12:37:28;63.33;;;47.37;;
3718;SDS011;1875;52.492;6.860;2023-05-09T12:40:01;67.67;;;48.00;;
3718;SDS011;1875;52.492;6.860;2023-05-09T12:42:31;60.43;;;46.77;;
3718;SDS011;1875;52.492;6.860;2023-05-09T12:45:00;53.93;;;42.13;;
3718;SDS011;1875;52.492;6.860;2023-05-09T12:47:30;51.73;;;42.40;;
3718;SDS011;1875;52.492;6.860;2023-05-09T12:49:58;54.43;;;40.63;;
3718;SDS011;1875;52.492;6.860;2023-05-09T12:52:32;54.47;;;40.93;;
3718;SDS011;1875;52.492;6.860;2023-05-09T12:55:04;50.17;;;37.73;;
3718;SDS011;1875;52.492;6.860;2023-05-09T12:57:32;48.97;;;36.93;;
3718;SDS011;1875;52.492;6.860;2023-05-09T13:00:00;45.30;;;35.33;;
3718;SDS011;1875;52.492;6.860;2023-05-09T13:02:33;31.73;;;24.57;;
3718;SDS011;1875;52.492;6.860;2023-05-09T13:05:06;23.27;;;18.23;;
3718;SDS011;1875;52.492;6.860;2023-05-09T13:07:39;21.87;;;18.13;;
3718;SDS011;1875;52.492;6.860;2023-05-09T13:10:10;24.70;;;17.50;;
3718;SDS011;1875;52.492;6.860;2023-05-09T13:12:38;23.37;;;17.67;;
3718;SDS011;1875;52.492;6.860;2023-05-09T13:15:10;24.47;;;17.90;;
3718;SDS011;1875;52.492;6.860;2023-05-09T13:17:39;21.37;;;18.70;;
3718;SDS011;1875;52.492;6.860;2023-05-09T13:20:07;24.50;;;19.20;;
3718;SDS011;1875;52.492;6.860;2023-05-09T13:22:35;21.67;;;18.90;;
3718;SDS011;1875;52.492;6.860;2023-05-09T13:25:04;24.47;;;19.30;;
3718;SDS011;1875;52.492;6.860;2023-05-09T13:27:32;24.57;;;19.30;;
3718;SDS011;1875;52.492;6.860;2023-05-09T13:30:00;26.70;;;19.97;;
3718;SDS011;1875;52.492;6.860;2023-05-09T13:32:28;24.63;;;18.73;;
3718;SDS011;1875;52.492;6.860;2023-05-09T13:34:58;22.47;;;17.73;;
3718;SDS011;1875;52.492;6.860;2023-05-09T13:37:26;24.83;;;18.60;;
3718;SDS011;1875;52.492;6.860;2023-05-09T13:39:53;21.97;;;18.70;;
3718;SDS011;1875;52.492;6.860;2023-05-09T13:42:21;20.03;;;17.17;;
3718;SDS011;1875;52.492;6.860;2023-05-09T13:44:49;28.53;;;18.93;;
3718;SDS011;1875;52.492;6.860;2023-05-09T13:47:16;23.33;;;18.43;;
3718;SDS011;1875;52.492;6.860;2023-05-09T13:49:44;27.10;;;19.10;;
3718;SDS011;1875;52.492;6.860;2023-05-09T13:52:14;21.23;;;18.07;;
3718;SDS011;1875;52.492;6.860;2023-05-09T13:54:42;21.47;;;18.27;;
3718;SDS011;1875;52.492;6.860;2023-05-09T13:57:09;22.67;;;17.40;;
3718;SDS011;1875;52.492;6.860;2023-05-09T13:59:37;23.57;;;18.47;;
3718;SDS011;1875;52.492;6.860;2023-05-09T14:02:07;27.97;;;18.50;;
3718;SDS011;1875;52.492;6.860;2023-05-09T14:04:36;21.40;;;17.97;;
3718;SDS011;1875;52.492;6.860;2023-05-09T14:07:03;19.83;;;17.73;;
3718;SDS011;1875;52.492;6.860;2023-05-09T14:09:33;23.37;;;19.00;;
3718;SDS011;1875;52.492;6.860;2023-05-09T14:12:05;22.03;;;19.03;;
3718;SDS011;1875;52.492;6.860;2023-05-09T14:14:33;23.43;;;18.77;;
3718;SDS011;1875;52.492;6.860;2023-05-09T14:17:01;18.73;;;16.77;;
3718;SDS011;1875;52.492;6.860;2023-05-09T14:19:29;20.77;;;18.60;;
3718;SDS011;1875;52.492;6.860;2023-05-09T14:21:57;21.77;;;18.07;;
3718;SDS011;1875;52.492;6.860;2023-05-09T14:24:24;22.67;;;19.37;;
3718;SDS011;1875;52.492;6.860;2023-05-09T14:26:57;22.77;;;18.67;;
3718;SDS011;1875;52.492;6.860;2023-05-09T14:29:25;20.77;;;18.57;;
3718;SDS011;1875;52.492;6.860;2023-05-09T14:31:52;20.57;;;18.57;;
3718;SDS011;1875;52.492;6.860;2023-05-09T14:34:21;21.30;;;18.57;;
3718;SDS011;1875;52.492;6.860;2023-05-09T14:36:48;21.17;;;18.87;;
3718;SDS011;1875;52.492;6.860;2023-05-09T14:39:16;22.00;;;18.73;;
3718;SDS011;1875;52.492;6.860;2023-05-09T14:41:45;22.13;;;19.77;;
3718;SDS011;1875;52.492;6.860;2023-05-09T14:44:16;22.10;;;18.73;;
3718;SDS011;1875;52.492;6.860;2023-05-09T14:46:44;20.37;;;18.20;;
3718;SDS011;1875;52.492;6.860;2023-05-09T14:49:12;22.17;;;19.87;;
3718;SDS011;1875;52.492;6.860;2023-05-09T14:51:39;21.40;;;18.37;;
3718;SDS011;1875;52.492;6.860;2023-05-09T14:54:07;23.97;;;19.90;;
3718;SDS011;1875;52.492;6.860;2023-05-09T14:56:35;21.07;;;18.97;;
3718;SDS011;1875;52.492;6.860;2023-05-09T14:59:03;21.37;;;18.50;;
3718;SDS011;1875;52.492;6.860;2023-05-09T15:01:32;19.80;;;17.80;;
3718;SDS011;1875;52.492;6.860;2023-05-09T15:04:00;20.77;;;18.57;;